createdAt,value
2022-09-10T00:00:21.349Z,100414.86
2022-09-10T00:01:25.265Z,100417.61
2022-09-10T00:02:27.497Z,100414.86
2022-09-10T00:03:29.767Z,100415.70
2022-09-10T00:04:32.231Z,100410.34
2022-09-10T00:05:42.351Z,100416.66
2022-09-10T00:06:44.786Z,100410.44
2022-09-10T00:07:46.894Z,100412.17
2022-09-10T00:08:49.411Z,100412.25
2022-09-10T00:09:52.204Z,100409.56
2022-09-10T00:10:54.576Z,100409.56
2022-09-10T00:11:56.799Z,100411.39
2022-09-10T00:12:58.890Z,100410.55
2022-09-10T00:14:02.256Z,100419.45
2022-09-10T00:15:06.080Z,100413.23
2022-09-10T00:16:10.446Z,100403.45
2022-09-10T00:17:13.564Z,100407.86
2022-09-10T00:18:17.137Z,100412.35
2022-09-10T00:19:19.270Z,100404.30
2022-09-10T00:20:22.447Z,100411.50
2022-09-10T00:21:24.543Z,100407.97
2022-09-10T00:22:26.742Z,100403.45
2022-09-10T00:23:29.175Z,100406.98
2022-09-10T00:24:31.266Z,100406.13
2022-09-10T00:25:33.353Z,100399.04
2022-09-10T00:26:36.738Z,100398.19
2022-09-10T00:27:38.850Z,100400.88
2022-09-10T00:28:41.035Z,100400.88
2022-09-10T00:29:43.107Z,100399.04
2022-09-10T00:30:47.294Z,100399.99
2022-09-10T00:31:49.415Z,100402.67
2022-09-10T00:32:51.615Z,100402.67
2022-09-10T00:33:53.672Z,100393.78
2022-09-10T00:34:56.789Z,100392.83
2022-09-10T00:35:58.918Z,100395.61
2022-09-10T00:37:01.123Z,100396.46
2022-09-10T00:38:03.935Z,100395.61
2022-09-10T00:40:26.225Z,100393.07
2022-09-10T00:41:29.258Z,100399.14
2022-09-10T00:42:31.381Z,100401.83
2022-09-10T00:44:00.631Z,100398.30
2022-09-10T00:45:03.724Z,100394.73
2022-09-10T00:46:08.413Z,100392.05
2022-09-10T00:47:22.949Z,100386.79
2022-09-10T00:48:28.018Z,100386.79
2022-09-10T00:49:36.928Z,100393.14
2022-09-10T00:50:40.914Z,100384.21
2022-09-10T00:51:44.206Z,100387.77
2022-09-10T00:52:48.734Z,100386.89
2022-09-10T00:53:51.057Z,100386.89
2022-09-10T00:54:53.133Z,100381.53
2022-09-10T00:55:57.237Z,100379.73
2022-09-10T00:57:02.652Z,100373.48
2022-09-10T00:58:05.875Z,100372.63
2022-09-10T00:59:08.032Z,100375.31
2022-09-10T01:00:12.109Z,100383.36
2022-09-10T01:01:15.386Z,100373.59
2022-09-10T01:02:18.274Z,100374.44
2022-09-10T01:03:24.867Z,100381.63
2022-09-10T01:04:25.613Z,100369.06
2022-09-10T01:05:29.951Z,100381.63
2022-09-10T01:06:32.863Z,100370.91
2022-09-10T01:07:35.307Z,100373.59
2022-09-10T01:08:38.253Z,100381.63
2022-09-10T01:09:40.737Z,100380.68
2022-09-10T01:11:02.210Z,100381.63
2022-09-10T01:12:34.316Z,100381.63
2022-09-10T01:13:54.274Z,100381.63
2022-09-10T01:16:37.711Z,100382.73
2022-09-10T01:17:55.955Z,100383.58
2022-09-10T01:19:14.790Z,100375.59
2022-09-10T01:20:55.578Z,100375.70
2022-09-10T01:22:07.042Z,100370.44
2022-09-10T01:23:46.988Z,100369.59
2022-09-10T01:24:54.932Z,100372.38
2022-09-10T01:27:43.054Z,100362.96
2022-09-10T01:28:59.078Z,100368.08
2022-09-10T01:30:10.478Z,100366.45
2022-09-10T01:32:47.375Z,100360.48
2022-09-10T01:33:53.394Z,100370.09
2022-09-10T01:35:03.338Z,100367.41
2022-09-10T01:36:08.648Z,100363.03
2022-09-10T01:37:18.363Z,100369.24
2022-09-10T01:38:24.837Z,100373.66
2022-09-10T01:39:27.920Z,100366.45
2022-09-10T01:40:31.590Z,100367.30
2022-09-10T01:41:39.182Z,100367.30
2022-09-10T01:42:42.509Z,100369.91
2022-09-10T01:43:45.481Z,100365.39
2022-09-10T01:44:49.699Z,100363.56
2022-09-10T01:46:14.437Z,100360.88
2022-09-10T01:47:23.202Z,100360.77
2022-09-10T01:48:41.078Z,100364.34
2022-09-10T01:50:05.436Z,100367.02
2022-09-10T01:51:17.410Z,100357.98
2022-09-10T01:52:40.290Z,100356.29
2022-09-10T01:53:52.505Z,100363.45
2022-09-10T01:55:07.129Z,100363.56
2022-09-10T01:56:26.995Z,100356.39
2022-09-10T01:58:50.289Z,100365.64
2022-09-10T02:00:08.969Z,100381.48
2022-09-10T02:03:05.788Z,100374.64
2022-09-10T02:04:09.048Z,100377.08
2022-09-10T02:05:12.026Z,100369.14
2022-09-10T02:06:19.430Z,100373.55
2022-09-10T02:07:23.560Z,100375.34
2022-09-10T02:09:41.308Z,100357.59
2022-09-10T02:10:52.658Z,100366.34
2022-09-10T02:11:55.897Z,100364.55
2022-09-10T02:13:14.942Z,100370.77
2022-09-10T02:14:19.580Z,100369.80
2022-09-10T02:15:40.165Z,100362.71
2022-09-10T02:16:56.468Z,100369.80
2022-09-10T02:17:59.236Z,100355.41
2022-09-10T02:19:02.423Z,100354.56
2022-09-10T02:21:20.267Z,100355.58
2022-09-10T02:22:23.171Z,100356.50
2022-09-10T02:24:41.275Z,100358.27
2022-09-10T02:25:43.361Z,100367.02
2022-09-10T02:26:45.634Z,100350.92
2022-09-10T02:27:48.110Z,100355.30
2022-09-10T02:28:50.678Z,100353.50
2022-09-10T02:29:53.016Z,100353.39
2022-09-10T02:30:56.245Z,100350.71
2022-09-10T02:31:59.541Z,100353.29
2022-09-10T02:33:01.746Z,100347.92
2022-09-10T02:34:04.981Z,100354.13
2022-09-10T02:35:07.844Z,100345.13
2022-09-10T02:36:10.493Z,100346.86
2022-09-10T02:37:12.894Z,100344.18
2022-09-10T02:38:16.477Z,100345.03
2022-09-10T02:39:21.080Z,100348.59
2022-09-10T02:40:24.302Z,100343.23
2022-09-10T02:41:26.891Z,100347.60
2022-09-10T02:42:29.735Z,100343.12
2022-09-10T02:43:31.811Z,100344.07
2022-09-10T02:44:36.893Z,100330.09
2022-09-10T02:45:39.737Z,100330.09
2022-09-10T02:46:43.137Z,100342.23
2022-09-10T02:47:45.812Z,100340.44
2022-09-10T02:48:50.646Z,100335.91
2022-09-10T02:49:52.802Z,100334.19
2022-09-10T02:50:55.136Z,100338.60
2022-09-10T02:51:57.419Z,100335.91
2022-09-10T02:52:59.623Z,100332.39
2022-09-10T02:54:02.298Z,100328.83
2022-09-10T02:55:06.355Z,100321.94
2022-09-10T02:56:09.387Z,100321.94
2022-09-10T02:57:11.770Z,100327.87
2022-09-10T02:58:14.742Z,100320.77
2022-09-10T02:59:17.230Z,100326.06
2022-09-10T03:00:20.267Z,100325.19
2022-09-10T03:01:23.158Z,100329.70
2022-09-10T03:02:27.237Z,100319.81
2022-09-10T03:03:29.827Z,100314.45
2022-09-10T03:04:32.510Z,100320.70
2022-09-10T03:05:38.446Z,100314.45
2022-09-10T03:06:40.877Z,100316.29
2022-09-10T03:07:43.441Z,100311.77
2022-09-10T03:08:46.020Z,100313.61
2022-09-10T03:09:48.901Z,100310.92
2022-09-10T03:10:51.206Z,100306.52
2022-09-10T03:11:53.614Z,100312.73
2022-09-10T03:12:56.172Z,100304.67
2022-09-10T03:13:59.333Z,100305.56
2022-09-10T03:15:02.026Z,100304.60
2022-09-10T03:16:05.004Z,100304.60
2022-09-10T03:17:08.487Z,100301.92
2022-09-10T03:18:11.467Z,100301.92
2022-09-10T03:19:14.875Z,100306.30
2022-09-10T03:20:17.533Z,100304.60
2022-09-10T03:21:22.057Z,100306.30
2022-09-10T03:22:24.486Z,100305.45
2022-09-10T03:23:27.698Z,100297.40
2022-09-10T03:24:30.801Z,100306.19
2022-09-10T03:25:33.080Z,100306.30
2022-09-10T03:26:35.354Z,100302.77
2022-09-10T03:27:39.362Z,100304.49
2022-09-10T03:28:42.685Z,100305.45
2022-09-10T03:29:45.836Z,100309.75
2022-09-10T03:30:48.726Z,100300.93
2022-09-10T03:31:52.209Z,100303.51
2022-09-10T03:32:55.535Z,100303.61
2022-09-10T03:33:57.997Z,100308.88
2022-09-10T03:35:00.823Z,100304.49
2022-09-10T03:36:04.240Z,100301.81
2022-09-10T03:37:07.277Z,100300.83
2022-09-10T03:38:10.243Z,100305.23
2022-09-10T03:39:13.797Z,100306.08
2022-09-10T03:40:17.008Z,100304.39
2022-09-10T03:41:19.825Z,100302.55
2022-09-10T03:42:22.709Z,100301.59
2022-09-10T03:43:26.116Z,100304.28
2022-09-10T03:44:28.477Z,100307.81
2022-09-10T03:45:31.624Z,100311.37
2022-09-10T03:46:34.974Z,100312.33
2022-09-10T03:47:38.466Z,100307.81
2022-09-10T03:48:40.912Z,100306.96
2022-09-10T03:49:43.603Z,100300.64
2022-09-10T03:50:46.510Z,100299.87
2022-09-10T03:51:51.431Z,100305.23
2022-09-10T03:52:54.149Z,100305.23
2022-09-10T03:53:56.594Z,100296.34
2022-09-10T03:54:59.898Z,100300.72
2022-09-10T03:56:03.137Z,100300.72
2022-09-10T03:57:05.432Z,100300.72
2022-09-10T03:58:08.058Z,100301.59
2022-09-10T03:59:10.279Z,100303.40
2022-09-10T04:00:14.067Z,100303.40
2022-09-10T04:01:21.586Z,100301.59
2022-09-10T04:02:24.914Z,100293.66
2022-09-10T04:03:27.907Z,100295.35
2022-09-10T04:04:30.070Z,100299.02
2022-09-10T04:05:32.796Z,100295.35
2022-09-10T04:06:35.245Z,100289.98
2022-09-10T04:07:37.481Z,100292.66
2022-09-10T04:08:39.804Z,100290.86
2022-09-10T04:09:44.535Z,100292.66
2022-09-10T04:10:47.711Z,100294.39
2022-09-10T04:11:51.034Z,100293.44
2022-09-10T04:12:55.057Z,100291.71
2022-09-10T04:13:58.134Z,100295.27
2022-09-10T04:15:01.773Z,100293.44
2022-09-10T04:16:05.789Z,100297.95
2022-09-10T04:17:08.503Z,100297.08
2022-09-10T04:18:11.224Z,100297.08
2022-09-10T04:19:13.423Z,100297.95
2022-09-10T04:20:19.464Z,100298.03
2022-09-10T04:21:22.907Z,100298.80
2022-09-10T04:22:25.594Z,100292.59
2022-09-10T04:23:28.872Z,100291.71
2022-09-10T04:24:31.100Z,100286.34
2022-09-10T04:25:33.417Z,100289.03
2022-09-10T04:26:35.688Z,100289.03
2022-09-10T04:27:38.293Z,100293.55
2022-09-10T04:28:40.822Z,100294.39
2022-09-10T04:29:43.721Z,100289.98
2022-09-10T04:30:47.367Z,100291.82
2022-09-10T04:31:50.392Z,100295.35
2022-09-10T04:32:54.308Z,100284.62
2022-09-10T04:33:56.671Z,100278.41
2022-09-10T04:35:00.777Z,100292.66
2022-09-10T04:36:07.199Z,100282.92
2022-09-10T04:37:12.717Z,100284.62
2022-09-10T04:38:15.988Z,100285.71
2022-09-10T04:39:20.018Z,100280.34
2022-09-10T04:40:24.381Z,100283.03
2022-09-10T04:41:26.555Z,100283.03
2022-09-10T04:42:29.692Z,100287.41
2022-09-10T04:43:31.871Z,100274.10
2022-09-10T04:44:35.213Z,100272.30
2022-09-10T04:45:37.723Z,100274.10
2022-09-10T04:46:40.370Z,100273.99
2022-09-10T04:47:44.881Z,100270.47
2022-09-10T04:48:48.385Z,100276.67
2022-09-10T04:49:52.384Z,100269.61
2022-09-10T04:51:15.132Z,100271.31
2022-09-10T04:52:00.991Z,100268.63
2022-09-10T04:53:03.242Z,100267.67
2022-09-10T04:54:06.084Z,100264.98
2022-09-10T04:55:10.375Z,100258.77
2022-09-10T04:56:13.836Z,100259.62
2022-09-10T04:57:19.477Z,100267.67
2022-09-10T04:58:22.161Z,100264.98
2022-09-10T04:59:24.914Z,100260.58
2022-09-10T05:00:27.392Z,100258.66
2022-09-10T05:01:29.709Z,100264.03
2022-09-10T05:02:32.030Z,100257.78
2022-09-10T05:03:34.366Z,100261.23
2022-09-10T05:04:37.237Z,100265.76
2022-09-10T05:05:40.600Z,100259.41
2022-09-10T05:06:43.501Z,100262.97
2022-09-10T05:07:46.449Z,100252.23
2022-09-10T05:08:49.206Z,100258.45
2022-09-10T05:09:52.674Z,100258.45
2022-09-10T05:10:55.598Z,100251.25
2022-09-10T05:11:58.031Z,100248.56
2022-09-10T05:13:01.001Z,100241.39
2022-09-10T05:14:04.412Z,100252.12
2022-09-10T05:15:09.623Z,100246.76
2022-09-10T05:16:12.793Z,100246.65
2022-09-10T05:17:15.803Z,100251.17
2022-09-10T05:18:18.026Z,100256.53
2022-09-10T05:19:21.209Z,100251.17
2022-09-10T05:20:32.136Z,100250.29
2022-09-10T05:21:35.907Z,100256.53
2022-09-10T05:22:40.660Z,100252.97
2022-09-10T05:23:42.741Z,100253.92
2022-09-10T05:24:45.685Z,100252.12
2022-09-10T05:25:48.490Z,100259.30
2022-09-10T05:26:52.005Z,100249.44
2022-09-10T05:27:55.129Z,100254.81
2022-09-10T05:28:58.156Z,100253.92
2022-09-10T05:30:00.786Z,100251.17
2022-09-10T05:31:03.144Z,100250.17
2022-09-10T05:32:05.731Z,100257.27
2022-09-10T05:33:08.723Z,100251.06
2022-09-10T05:34:12.047Z,100240.33
2022-09-10T05:35:15.179Z,100246.65
2022-09-10T05:36:19.537Z,100240.33
2022-09-10T05:37:22.323Z,100248.38
2022-09-10T05:38:25.270Z,100243.01
2022-09-10T05:39:28.200Z,100251.06
2022-09-10T05:40:30.567Z,100251.91
2022-09-10T05:41:33.409Z,100249.22
2022-09-10T05:42:35.835Z,100249.22
2022-09-10T05:43:39.617Z,100256.31
2022-09-10T05:44:41.828Z,100260.80
2022-09-10T05:45:46.641Z,100254.59
2022-09-10T05:48:04.018Z,100253.85
2022-09-10T05:49:06.668Z,100249.22
2022-09-10T05:50:09.444Z,100252.02
2022-09-10T05:51:12.776Z,100251.06
2022-09-10T05:52:16.233Z,100253.74
2022-09-10T05:53:19.497Z,100254.59
2022-09-10T05:54:23.521Z,100252.02
2022-09-10T05:55:25.906Z,100241.28
2022-09-10T05:56:28.561Z,100251.91
2022-09-10T05:57:31.164Z,100247.50
2022-09-10T05:58:33.458Z,100244.70
2022-09-10T05:59:35.763Z,100243.86
2022-09-10T06:00:38.793Z,100250.95
2022-09-10T06:01:41.263Z,100242.02
2022-09-10T06:02:43.522Z,100243.01
2022-09-10T06:03:47.826Z,100248.38
2022-09-10T06:04:50.007Z,100243.01
2022-09-10T06:05:52.413Z,100245.80
2022-09-10T06:06:59.406Z,100237.75
2022-09-10T06:08:07.899Z,100244.92
2022-09-10T06:09:08.330Z,100250.29
2022-09-10T06:10:29.996Z,100244.92
2022-09-10T06:11:33.164Z,100240.52
2022-09-10T06:12:35.949Z,100248.56
2022-09-10T06:13:38.583Z,100245.03
2022-09-10T06:14:41.878Z,100237.09
2022-09-10T06:15:44.052Z,100241.50
2022-09-10T06:16:47.145Z,100245.14
2022-09-10T06:17:49.854Z,100246.98
2022-09-10T06:18:53.475Z,100250.51
2022-09-10T06:19:57.088Z,100246.09
2022-09-10T06:21:07.407Z,100255.88
2022-09-10T06:22:10.532Z,100253.30
2022-09-10T06:23:15.480Z,100257.70
2022-09-10T06:24:18.371Z,100256.83
2022-09-10T06:25:21.455Z,100247.93
2022-09-10T06:26:24.202Z,100255.98
2022-09-10T06:27:28.235Z,100243.41
2022-09-10T06:28:32.016Z,100253.30
2022-09-10T06:29:35.479Z,100244.37
2022-09-10T06:30:38.366Z,100249.73
2022-09-10T06:31:40.853Z,100242.56
2022-09-10T06:32:43.699Z,100247.93
2022-09-10T06:33:47.326Z,100244.37
2022-09-10T06:34:51.324Z,100254.14
2022-09-10T06:35:54.863Z,100247.93
2022-09-10T06:36:58.585Z,100247.93
2022-09-10T06:38:04.210Z,100246.20
2022-09-10T06:39:09.796Z,100249.73
2022-09-10T06:40:14.744Z,100249.73
2022-09-10T06:41:18.483Z,100250.62
2022-09-10T06:42:25.566Z,100250.62
2022-09-10T06:43:49.738Z,100255.98
2022-09-10T06:44:55.066Z,100257.78
2022-09-10T06:46:04.986Z,100255.98
2022-09-10T06:48:12.756Z,100256.83
2022-09-10T06:48:47.807Z,100244.70
2022-09-10T06:49:35.670Z,100244.70
2022-09-10T06:50:39.831Z,100247.05
2022-09-10T06:51:43.053Z,100244.37
2022-09-10T06:52:46.021Z,100249.73
2022-09-10T06:53:49.792Z,100245.36
2022-09-10T06:54:54.044Z,100243.52
2022-09-10T06:56:00.386Z,100244.37
2022-09-10T06:57:04.509Z,100249.73
2022-09-10T06:58:07.942Z,100247.93
2022-09-10T06:59:13.301Z,100252.42
2022-09-10T07:00:19.310Z,100248.89
2022-09-10T07:01:23.512Z,100253.41
2022-09-10T07:02:27.624Z,100247.37
2022-09-10T07:03:30.969Z,100243.96
2022-09-10T07:04:33.949Z,100250.50
2022-09-10T07:05:37.028Z,100249.73
2022-09-10T07:06:39.552Z,100252.52
2022-09-10T07:07:43.598Z,100249.94
2022-09-10T07:08:47.983Z,100247.48
2022-09-10T07:09:51.209Z,100248.54
2022-09-10T07:10:57.939Z,100248.54
2022-09-10T07:12:01.327Z,100240.70
2022-09-10T07:13:05.732Z,100245.52
2022-09-10T07:14:12.574Z,100237.69
2022-09-10T07:15:14.807Z,100241.53
2022-09-10T07:16:23.872Z,100245.35
2022-09-10T07:17:31.119Z,100233.85
2022-09-10T07:18:30.281Z,100230.43
2022-09-10T07:19:32.462Z,100234.06
2022-09-10T07:20:35.100Z,100242.32
2022-09-10T07:21:38.553Z,100242.32
2022-09-10T07:22:42.900Z,100240.59
2022-09-10T07:23:46.620Z,100235.23
2022-09-10T07:24:49.487Z,100243.27
2022-09-10T07:25:53.544Z,100230.82
2022-09-10T07:27:00.896Z,100226.45
2022-09-10T07:28:04.662Z,100234.48
2022-09-10T07:29:09.250Z,100243.38
2022-09-10T07:30:15.130Z,100245.32
2022-09-10T07:31:19.370Z,100240.06
2022-09-10T07:32:23.513Z,100235.34
2022-09-10T07:33:27.540Z,100244.16
2022-09-10T07:34:30.241Z,100241.26
2022-09-10T07:35:35.587Z,100245.56
2022-09-10T07:36:37.799Z,100239.22
2022-09-10T07:37:40.935Z,100236.45
2022-09-10T07:38:43.775Z,100239.03
2022-09-10T07:39:46.031Z,100241.53
2022-09-10T07:40:48.983Z,100238.85
2022-09-10T07:41:53.230Z,100243.16
2022-09-10T07:42:57.240Z,100240.36
2022-09-10T07:44:01.129Z,100241.11
2022-09-10T07:45:06.531Z,100240.05
2022-09-10T07:46:11.713Z,100231.37
2022-09-10T07:47:14.472Z,100231.37
2022-09-10T07:48:17.208Z,100233.72
2022-09-10T07:49:20.569Z,100237.25
2022-09-10T07:50:27.241Z,100241.66
2022-09-10T07:51:30.092Z,100245.30
2022-09-10T07:52:35.208Z,100234.68
2022-09-10T07:53:38.330Z,100238.23
2022-09-10T07:54:41.134Z,100239.09
2022-09-10T07:55:45.550Z,100237.36
2022-09-10T07:56:49.581Z,100241.77
2022-09-10T07:57:58.360Z,100234.57
2022-09-10T07:59:00.575Z,100245.30
2022-09-10T08:00:06.666Z,100234.57
2022-09-10T08:01:11.556Z,100225.78
2022-09-10T08:02:15.429Z,100228.47
2022-09-10T08:03:19.502Z,100224.91
2022-09-10T08:04:23.418Z,100226.74
2022-09-10T08:05:26.336Z,100221.48
2022-09-10T08:06:29.752Z,100224.17
2022-09-10T08:07:32.077Z,100226.85
2022-09-10T08:08:37.596Z,100225.02
2022-09-10T08:09:41.297Z,100226.00
2022-09-10T08:10:45.270Z,100224.17
2022-09-10T08:11:50.319Z,100225.89
2022-09-10T08:12:53.673Z,100215.17
2022-09-10T08:13:56.704Z,100216.97
2022-09-10T08:15:01.969Z,100212.59
2022-09-10T08:17:21.616Z,100217.31
2022-09-10T08:18:25.025Z,100210.87
2022-09-10T08:19:27.667Z,100216.23
2022-09-10T08:20:29.984Z,100215.28
2022-09-10T08:21:32.950Z,100202.83
2022-09-10T08:22:36.530Z,100209.98
2022-09-10T08:23:40.812Z,100214.61
2022-09-10T08:24:43.275Z,100215.56
2022-09-10T08:25:50.016Z,100224.38
2022-09-10T08:26:52.457Z,100221.70
2022-09-10T08:27:55.479Z,100217.19
2022-09-10T08:29:00.108Z,100219.02
2022-09-10T08:30:03.687Z,100229.75
2022-09-10T08:31:10.320Z,100224.48
2022-09-10T08:32:15.988Z,100224.27
2022-09-10T08:33:19.707Z,100213.44
2022-09-10T08:34:21.983Z,100208.92
2022-09-10T08:35:26.536Z,100214.18
2022-09-10T08:36:29.081Z,100218.59
2022-09-10T08:37:31.666Z,100211.50
2022-09-10T08:38:37.792Z,100215.06
2022-09-10T08:39:41.351Z,100203.45
2022-09-10T08:40:44.988Z,100212.38
2022-09-10T08:41:58.826Z,100212.38
2022-09-10T08:43:01.450Z,100212.38
2022-09-10T08:44:08.520Z,100203.37
2022-09-10T08:46:53.145Z,100208.86
2022-09-10T08:47:58.971Z,100204.97
2022-09-10T08:49:17.464Z,100208.63
2022-09-10T08:50:43.773Z,100201.54
2022-09-10T08:51:52.344Z,100205.17
2022-09-10T08:54:24.595Z,100202.84
2022-09-10T08:57:01.400Z,100201.77
2022-09-10T08:58:13.823Z,100210.44
2022-09-10T08:59:37.230Z,100204.86
2022-09-10T09:00:41.290Z,100198.31
2022-09-10T09:01:49.629Z,100196.41
2022-09-10T09:03:07.641Z,100196.19
2022-09-10T09:05:30.642Z,100186.11
2022-09-10T09:06:50.663Z,100189.53
2022-09-10T09:07:55.920Z,100181.70
2022-09-10T09:08:59.276Z,100175.69
2022-09-10T09:10:05.253Z,100190.08
2022-09-10T09:11:24.558Z,100187.59
2022-09-10T09:12:39.530Z,100186.74
2022-09-10T09:14:07.487Z,100184.17
2022-09-10T09:15:19.697Z,100187.06
2022-09-10T09:18:13.225Z,100177.62
2022-09-10T09:19:34.217Z,100179.42
2022-09-10T09:22:17.754Z,100179.13
2022-09-10T09:23:29.334Z,100177.36
2022-09-10T09:24:52.496Z,100172.19
2022-09-10T09:26:02.913Z,100171.45
2022-09-10T09:27:08.563Z,100170.59
2022-09-10T09:29:34.476Z,100176.41
2022-09-10T09:30:41.175Z,100173.57
2022-09-10T09:31:46.868Z,100171.84
2022-09-10T09:32:49.403Z,100182.56
2022-09-10T09:33:54.528Z,100177.20
2022-09-10T09:35:18.234Z,100174.45
2022-09-10T09:36:26.113Z,100176.14
2022-09-10T09:37:29.254Z,100174.34
2022-09-10T09:38:36.143Z,100174.34
2022-09-10T09:39:46.927Z,100167.98
2022-09-10T09:42:31.121Z,100175.13
2022-09-10T09:43:43.377Z,100166.08
2022-09-10T09:44:57.271Z,100172.30
2022-09-10T09:46:00.810Z,100176.81
2022-09-10T09:47:03.862Z,100178.64
2022-09-10T09:48:06.695Z,100175.96
2022-09-10T09:49:10.946Z,100178.64
2022-09-10T09:50:13.638Z,100181.22
2022-09-10T09:51:17.211Z,100182.17
2022-09-10T09:52:23.465Z,100181.32
2022-09-10T09:53:26.990Z,100176.81
2022-09-10T09:55:50.339Z,100170.48
2022-09-10T09:56:54.113Z,100177.55
2022-09-10T09:59:35.399Z,100167.84
2022-09-10T10:00:39.432Z,100169.42
2022-09-10T10:01:41.880Z,100173.91
2022-09-10T10:02:44.291Z,100167.59
2022-09-10T10:03:53.139Z,100167.59
2022-09-10T10:06:13.911Z,100167.73
2022-09-10T10:07:15.995Z,100162.16
2022-09-10T10:09:41.980Z,100171.20
2022-09-10T10:10:45.849Z,100164.62
2022-09-10T10:13:13.360Z,100162.93
2022-09-10T10:15:39.334Z,100164.73
2022-09-10T10:16:42.361Z,100163.66
2022-09-10T10:17:44.429Z,100151.98
2022-09-10T10:18:47.536Z,100156.36
2022-09-10T10:20:05.031Z,100155.40
2022-09-10T10:21:29.755Z,100146.50
2022-09-10T10:22:32.080Z,100152.61
2022-09-10T10:23:36.820Z,100151.76
2022-09-10T10:24:39.000Z,100147.24
2022-09-10T10:25:42.367Z,100146.29
2022-09-10T10:26:44.689Z,100148.13
2022-09-10T10:27:47.807Z,100146.29
2022-09-10T10:28:51.837Z,100148.97
2022-09-10T10:29:59.597Z,100139.09
2022-09-10T10:31:02.508Z,100142.65
2022-09-10T10:32:05.973Z,100140.81
2022-09-10T10:33:11.273Z,100141.69
2022-09-10T10:34:33.911Z,100138.91
2022-09-10T10:35:50.104Z,100135.34
2022-09-10T10:37:15.238Z,100131.70
2022-09-10T10:38:28.714Z,100142.43
2022-09-10T10:39:51.029Z,100134.38
2022-09-10T10:41:21.849Z,100126.34
2022-09-10T10:42:36.711Z,100133.53
2022-09-10T10:43:51.541Z,100129.98
2022-09-10T10:45:14.228Z,100129.13
2022-09-10T10:47:51.741Z,100130.97
2022-09-10T10:49:06.445Z,100131.05
2022-09-10T10:50:19.484Z,100128.47
2022-09-10T10:51:49.974Z,100124.09
2022-09-10T10:53:12.484Z,100119.69
2022-09-10T10:54:30.673Z,100113.67
2022-09-10T10:55:45.872Z,100111.94
2022-09-10T10:57:09.502Z,100111.09
2022-09-10T10:58:21.218Z,100109.45
2022-09-10T10:59:36.753Z,100117.41
2022-09-10T11:00:55.305Z,100117.41
2022-09-10T11:02:05.287Z,100106.69
2022-09-10T11:03:14.526Z,100104.97
2022-09-10T11:04:20.433Z,100107.64
2022-09-10T11:05:30.978Z,100096.92
2022-09-10T11:06:38.016Z,100094.34
2022-09-10T11:07:40.606Z,100094.24
2022-09-10T11:08:48.225Z,100095.97
2022-09-10T11:10:20.003Z,100093.28
2022-09-10T11:11:26.000Z,100096.84
2022-09-10T11:12:33.878Z,100090.49
2022-09-10T11:13:42.147Z,100091.37
2022-09-10T11:14:50.960Z,100094.05
2022-09-10T11:17:37.748Z,100093.31
2022-09-10T11:18:55.890Z,100095.85
2022-09-10T11:20:27.405Z,100099.53
2022-09-10T11:21:27.648Z,100091.67
2022-09-10T11:22:33.830Z,100087.48
2022-09-10T11:24:01.028Z,100087.67
2022-09-10T11:25:12.955Z,100086.05
2022-09-10T11:26:26.946Z,100085.32
2022-09-10T11:29:17.476Z,100083.08
2022-09-10T11:30:21.303Z,100082.97
2022-09-10T11:31:31.990Z,100074.05
2022-09-10T11:32:55.069Z,100080.58
2022-09-10T11:34:01.069Z,100077.05
2022-09-10T11:35:24.930Z,100077.05
2022-09-10T11:36:46.543Z,100068.24
2022-09-10T11:39:18.595Z,100063.33
2022-09-10T11:41:57.282Z,100066.77
2022-09-10T11:43:09.383Z,100071.91
2022-09-10T11:44:36.597Z,100065.67
2022-09-10T11:45:48.470Z,100063.10
2022-09-10T11:46:57.530Z,100063.21
2022-09-10T11:48:24.265Z,100058.92
2022-09-10T11:49:49.937Z,100056.23
2022-09-10T11:51:05.268Z,100063.42
2022-09-10T11:52:08.736Z,100062.58
2022-09-10T11:53:14.206Z,100056.45
2022-09-10T11:55:59.405Z,100054.95
2022-09-10T11:57:14.681Z,100056.67
2022-09-10T12:00:05.435Z,100051.20
2022-09-10T12:02:50.490Z,100055.05
2022-09-10T12:05:23.183Z,100043.48
2022-09-10T12:07:03.085Z,100048.06
2022-09-10T12:08:27.449Z,100047.41
2022-09-10T12:11:12.411Z,100038.09
2022-09-10T12:13:41.246Z,100040.98
2022-09-10T12:14:44.689Z,100045.05
2022-09-10T12:15:53.607Z,100045.89
2022-09-10T12:17:02.983Z,100042.15
2022-09-10T12:18:14.961Z,100031.14
2022-09-10T12:19:28.799Z,100033.50
2022-09-10T12:20:37.262Z,100034.90
2022-09-10T12:21:46.938Z,100032.00
2022-09-10T12:22:51.865Z,100026.53
2022-09-10T12:23:54.833Z,100030.94
2022-09-10T12:25:01.978Z,100031.67
2022-09-10T12:26:13.453Z,100031.59
2022-09-10T12:27:19.591Z,100030.50
2022-09-10T12:28:43.402Z,100026.02
2022-09-10T12:29:47.332Z,100023.34
2022-09-10T12:31:00.467Z,100012.73
2022-09-10T12:32:15.685Z,100020.88
2022-09-10T12:33:22.652Z,100020.95
2022-09-10T12:34:25.065Z,100013.91
2022-09-10T12:35:34.620Z,100007.56
2022-09-10T12:36:40.892Z,100016.48
2022-09-10T12:37:43.465Z,100018.20
2022-09-10T12:38:57.656Z,100014.42
2022-09-10T12:40:26.565Z,100019.70
2022-09-10T12:41:33.861Z,100014.13
2022-09-10T12:42:36.035Z,100004.14
2022-09-10T12:43:43.315Z,100004.03
2022-09-10T12:44:45.826Z,100002.23
2022-09-10T12:46:05.492Z,99997.60
2022-09-10T12:47:37.112Z,99997.49
2022-09-10T12:48:51.510Z,99994.63
2022-09-10T12:49:58.060Z,99994.51
2022-09-10T12:51:01.410Z,99993.63
2022-09-10T12:52:03.762Z,99993.52
2022-09-10T12:53:16.333Z,99992.67
2022-09-10T12:54:45.991Z,99992.56
2022-09-10T12:57:26.009Z,99995.34
2022-09-10T13:00:11.550Z,99991.70
2022-09-10T13:01:27.925Z,99994.17
2022-09-10T13:02:35.530Z,99990.64
2022-09-10T13:03:41.437Z,99990.64
2022-09-10T13:04:44.043Z,99990.53
2022-09-10T13:05:51.528Z,99986.02
2022-09-10T13:08:18.877Z,99988.80
2022-09-10T13:09:23.144Z,99987.63
2022-09-10T13:10:28.004Z,99988.48
2022-09-10T13:11:33.006Z,99984.95
2022-09-10T13:12:35.201Z,99981.31
2022-09-10T13:13:50.441Z,99985.69
2022-09-10T13:14:53.382Z,99982.16
2022-09-10T13:15:55.641Z,99982.92
2022-09-10T13:16:58.299Z,99981.09
2022-09-10T13:18:10.655Z,99989.86
2022-09-10T13:19:16.728Z,99985.37
2022-09-10T13:20:27.158Z,99971.86
2022-09-10T13:21:34.033Z,99981.62
2022-09-10T13:22:56.514Z,99964.66
2022-09-10T13:23:58.803Z,99973.58
2022-09-10T13:25:03.176Z,99975.30
2022-09-10T13:26:33.335Z,99980.67
2022-09-10T13:27:38.147Z,99984.23
2022-09-10T13:28:44.215Z,99965.45
2022-09-10T13:29:56.548Z,99966.42
2022-09-10T13:31:09.239Z,99966.30
2022-09-10T13:32:34.631Z,99958.26
2022-09-10T13:33:52.618Z,99964.47
2022-09-10T13:35:07.939Z,99963.51
2022-09-10T13:36:18.159Z,99951.94
2022-09-10T13:37:25.149Z,99953.74